createdAt,value
2019-01-17T00:00:56.035Z,933.57
2019-01-17T00:02:03.986Z,933.60
2019-01-17T00:03:12.058Z,933.62
2019-01-17T00:04:20.086Z,933.62
2019-01-17T00:05:28.232Z,933.56
2019-01-17T00:06:36.241Z,933.63
2019-01-17T00:07:44.256Z,933.60
2019-01-17T00:08:52.304Z,933.61
2019-01-17T00:10:00.372Z,933.59
2019-01-17T00:11:08.498Z,933.62
2019-01-17T00:12:16.453Z,933.60
2019-01-17T00:13:24.501Z,933.61
2019-01-17T00:14:32.554Z,933.59
2019-01-17T00:15:40.593Z,933.59
2019-01-17T00:16:48.763Z,933.60
2019-01-17T00:17:56.713Z,933.65
2019-01-17T00:19:04.775Z,933.64
2019-01-17T00:20:12.819Z,933.62
2019-01-17T00:21:20.953Z,933.58
2019-01-17T00:22:28.935Z,933.55
2019-01-17T00:23:36.973Z,933.56
2019-01-17T00:24:45.031Z,933.53
2019-01-17T00:25:53.083Z,933.55
2019-01-17T00:27:01.193Z,933.59
2019-01-17T00:28:09.191Z,933.59
2019-01-17T00:29:17.218Z,933.57
2019-01-17T00:30:25.289Z,933.58
2019-01-17T00:31:33.379Z,933.58
2019-01-17T00:32:41.371Z,933.58
2019-01-17T00:33:49.441Z,933.61
2019-01-17T00:34:57.490Z,933.55
2019-01-17T00:36:05.542Z,933.64
2019-01-17T00:37:13.673Z,933.62
2019-01-17T00:38:21.644Z,933.60
2019-01-17T00:39:29.722Z,933.68
2019-01-17T00:40:37.748Z,933.65
2019-01-17T00:41:45.903Z,933.66
2019-01-17T00:42:53.861Z,933.71
2019-01-17T00:44:01.907Z,933.71
2019-01-17T00:45:09.950Z,933.69
2019-01-17T00:46:18.001Z,933.65
2019-01-17T00:47:26.170Z,933.72
2019-01-17T00:48:34.123Z,933.71
2019-01-17T00:49:42.178Z,933.68
2019-01-17T00:50:50.237Z,933.72
2019-01-17T00:51:58.369Z,933.73
2019-01-17T00:53:06.417Z,933.73
2019-01-17T00:54:14.388Z,933.76
2019-01-17T00:55:22.828Z,933.74
2019-01-17T00:56:30.779Z,933.87
2019-01-17T00:57:39.049Z,933.78
2019-01-17T00:58:46.857Z,933.85
2019-01-17T00:59:54.635Z,933.83
2019-01-17T01:01:03.010Z,933.86
2019-01-17T01:02:10.818Z,933.90
2019-01-17T01:03:18.803Z,933.88
2019-01-17T01:04:26.852Z,933.85
2019-01-17T01:05:35.287Z,933.86
2019-01-17T01:06:42.937Z,933.85
2019-01-17T01:07:51.082Z,933.88
2019-01-17T01:08:59.182Z,933.86
2019-01-17T01:10:07.104Z,933.85
2019-01-17T01:11:15.165Z,933.90
2019-01-17T01:12:23.294Z,933.85
2019-01-17T01:13:31.256Z,933.84
2019-01-17T01:14:39.304Z,933.87
2019-01-17T01:15:47.385Z,933.81
2019-01-17T01:16:55.421Z,933.82
2019-01-17T01:18:03.556Z,933.85
2019-01-17T01:19:11.510Z,933.84
2019-01-17T01:20:19.571Z,933.80
2019-01-17T01:21:27.645Z,933.85
2019-01-17T01:22:35.776Z,933.82
2019-01-17T01:23:43.747Z,933.88
2019-01-17T01:24:51.784Z,933.87
2019-01-17T01:25:59.847Z,933.84
2019-01-17T01:27:07.895Z,933.84
2019-01-17T01:28:15.981Z,933.79
2019-01-17T01:29:24.010Z,933.82
2019-01-17T01:30:32.044Z,933.78
2019-01-17T01:31:40.105Z,933.83
2019-01-17T01:32:48.245Z,933.86
2019-01-17T01:33:56.191Z,933.87
2019-01-17T01:35:04.275Z,933.92
2019-01-17T01:36:12.303Z,933.93
2019-01-17T01:37:20.341Z,933.93
2019-01-17T01:38:28.425Z,933.89
2019-01-17T01:39:36.458Z,933.88
2019-01-17T01:40:44.509Z,933.93
2019-01-17T01:41:52.566Z,933.89
2019-01-17T01:43:00.647Z,933.89
2019-01-17T01:44:08.670Z,933.89
2019-01-17T01:45:16.716Z,933.91
2019-01-17T01:46:24.790Z,933.92
2019-01-17T01:47:32.865Z,933.88
2019-01-17T01:48:40.889Z,933.92
2019-01-17T01:49:48.926Z,933.90
2019-01-17T01:50:56.984Z,933.93
2019-01-17T01:52:05.019Z,933.90
2019-01-17T01:53:13.192Z,933.91
2019-01-17T01:54:22.060Z,933.95
2019-01-17T01:55:29.205Z,933.91
2019-01-17T01:56:37.241Z,933.92
2019-01-17T01:57:45.326Z,933.92
2019-01-17T01:58:53.343Z,933.96
2019-01-17T02:00:01.414Z,933.93
2019-01-17T02:01:09.456Z,933.92
2019-01-17T02:02:17.512Z,933.93
2019-01-17T02:03:25.653Z,933.93
2019-01-17T02:04:33.651Z,933.92
2019-01-17T02:05:41.648Z,933.88
2019-01-17T02:06:49.701Z,933.89
2019-01-17T02:07:57.866Z,933.87
2019-01-17T02:09:05.921Z,933.87
2019-01-17T02:10:13.873Z,933.85
2019-01-17T02:11:21.976Z,933.88
2019-01-17T02:12:29.971Z,933.91
2019-01-17T02:13:38.131Z,933.88
2019-01-17T02:14:46.068Z,933.84
2019-01-17T02:15:54.130Z,933.82
2019-01-17T02:17:02.173Z,933.83
2019-01-17T02:18:10.283Z,933.85
2019-01-17T02:19:18.293Z,933.81
2019-01-17T02:20:26.401Z,933.78
2019-01-17T02:21:34.394Z,933.74
2019-01-17T02:22:42.436Z,933.73
2019-01-17T02:23:50.568Z,933.71
2019-01-17T02:24:58.701Z,933.78
2019-01-17T02:26:06.610Z,933.76
2019-01-17T02:27:14.653Z,933.71
2019-01-17T02:28:22.804Z,933.76
2019-01-17T02:29:30.754Z,933.77
2019-01-17T02:30:38.827Z,933.78
2019-01-17T02:31:46.914Z,933.75
2019-01-17T02:32:54.903Z,933.75
2019-01-17T02:34:03.060Z,933.73
2019-01-17T02:35:11.010Z,933.74
2019-01-17T02:36:19.119Z,933.77
2019-01-17T02:37:27.121Z,933.73
2019-01-17T02:38:35.236Z,933.79
2019-01-17T02:39:43.230Z,933.78
2019-01-17T02:40:51.554Z,933.80
2019-01-17T02:41:59.331Z,933.80
2019-01-17T02:43:07.427Z,933.78
2019-01-17T02:44:15.529Z,933.79
2019-01-17T02:45:23.493Z,933.81
2019-01-17T02:46:31.513Z,933.81
2019-01-17T02:47:39.603Z,933.83
2019-01-17T02:48:47.714Z,933.75
2019-01-17T02:49:55.736Z,933.77
2019-01-17T02:51:03.738Z,933.77
2019-01-17T02:52:11.823Z,933.74
2019-01-17T02:53:19.835Z,933.73
2019-01-17T02:54:28.008Z,933.75
2019-01-17T02:55:35.966Z,933.73
2019-01-17T02:56:44.108Z,933.70
2019-01-17T02:57:52.083Z,933.71
2019-01-17T02:59:00.243Z,933.76
2019-01-17T03:00:08.163Z,933.72
2019-01-17T03:01:16.262Z,933.79
2019-01-17T03:02:24.286Z,933.72
2019-01-17T03:03:32.337Z,933.78
2019-01-17T03:04:40.466Z,933.75
2019-01-17T03:05:48.432Z,933.80
2019-01-17T03:06:56.473Z,933.81
2019-01-17T03:08:04.559Z,933.86
2019-01-17T03:09:12.681Z,933.86
2019-01-17T03:10:20.648Z,933.87
2019-01-17T03:11:28.694Z,933.90
2019-01-17T03:12:36.795Z,933.82
2019-01-17T03:13:44.792Z,933.88
2019-01-17T03:14:52.953Z,933.86
2019-01-17T03:16:00.878Z,933.84
2019-01-17T03:17:08.958Z,933.79
2019-01-17T03:18:17.008Z,933.78
2019-01-17T03:19:25.169Z,933.80
2019-01-17T03:20:33.119Z,933.77
2019-01-17T03:21:41.150Z,933.73
2019-01-17T03:22:49.211Z,933.78
2019-01-17T03:23:57.281Z,933.74
2019-01-17T03:25:05.396Z,933.74
2019-01-17T03:26:13.360Z,933.74
2019-01-17T03:27:21.402Z,933.74
2019-01-17T03:28:29.483Z,933.71
2019-01-17T03:29:37.627Z,933.71
2019-01-17T03:30:45.607Z,933.68
2019-01-17T03:31:53.650Z,933.70
2019-01-17T03:33:01.709Z,933.68
2019-01-17T03:34:09.738Z,933.68
2019-01-17T03:35:17.809Z,933.65
2019-01-17T03:36:25.832Z,933.69
2019-01-17T03:37:33.892Z,933.70
2019-01-17T03:38:41.959Z,933.70
2019-01-17T03:39:50.055Z,933.65
2019-01-17T03:40:58.062Z,933.63
2019-01-17T03:42:06.127Z,933.64
2019-01-17T03:43:14.245Z,933.67
2019-01-17T03:44:22.211Z,933.61
2019-01-17T03:45:30.265Z,933.60
2019-01-17T03:46:38.312Z,933.59
2019-01-17T03:47:46.373Z,933.58
2019-01-17T03:48:54.418Z,933.53
2019-01-17T03:50:02.526Z,933.53
2019-01-17T03:51:10.513Z,933.46
2019-01-17T03:52:18.588Z,933.48
2019-01-17T03:53:26.630Z,933.45
2019-01-17T03:54:34.676Z,933.36
2019-01-17T03:55:42.739Z,933.43
2019-01-17T03:56:50.766Z,933.47
2019-01-17T03:57:58.922Z,933.41
2019-01-17T03:59:06.880Z,933.40
2019-01-17T04:00:15.000Z,933.47
2019-01-17T04:01:23.002Z,933.39
2019-01-17T04:02:31.027Z,933.38
2019-01-17T04:03:39.116Z,933.36
2019-01-17T04:04:47.212Z,933.37
2019-01-17T04:05:55.211Z,933.36
2019-01-17T04:07:03.282Z,933.38
2019-01-17T04:08:11.284Z,933.33
2019-01-17T04:09:19.359Z,933.35
2019-01-17T04:10:27.466Z,933.31
2019-01-17T04:11:35.473Z,933.31
2019-01-17T04:12:43.580Z,933.26
2019-01-17T04:13:51.582Z,933.26
2019-01-17T04:14:59.729Z,933.29
2019-01-17T04:16:07.700Z,933.26
2019-01-17T04:17:15.730Z,933.23
2019-01-17T04:18:23.792Z,933.23
2019-01-17T04:19:31.847Z,933.19
2019-01-17T04:20:39.971Z,933.17
2019-01-17T04:21:47.955Z,933.21
2019-01-17T04:22:56.001Z,933.15
2019-01-17T04:24:04.062Z,933.12
2019-01-17T04:25:12.151Z,933.10
2019-01-17T04:26:20.163Z,933.14
2019-01-17T04:27:28.305Z,933.15
2019-01-17T04:28:36.268Z,933.15
2019-01-17T04:29:44.326Z,933.16
2019-01-17T04:30:52.459Z,933.09
2019-01-17T04:32:00.413Z,933.17
2019-01-17T04:33:08.476Z,933.14
2019-01-17T04:34:16.526Z,933.14
2019-01-17T04:35:24.630Z,933.16
2019-01-17T04:36:32.639Z,933.12
2019-01-17T04:37:40.690Z,933.03
2019-01-17T04:38:48.737Z,933.03
2019-01-17T04:39:56.788Z,933.02
2019-01-17T04:41:04.904Z,933.02
2019-01-17T04:42:12.899Z,933.03
2019-01-17T04:43:20.975Z,933.08
2019-01-17T04:44:29.004Z,932.99
2019-01-17T04:45:37.169Z,933.00
2019-01-17T04:46:45.113Z,932.96
2019-01-17T04:47:53.175Z,932.97
2019-01-17T04:49:01.187Z,932.97
2019-01-17T04:50:09.264Z,932.97
2019-01-17T04:51:17.408Z,932.95
2019-01-17T04:52:25.363Z,932.90
2019-01-17T04:53:33.419Z,932.90
2019-01-17T04:54:41.473Z,932.88
2019-01-17T04:55:49.628Z,932.80
2019-01-17T04:56:57.598Z,932.82
2019-01-17T04:58:05.718Z,932.83
2019-01-17T04:59:13.701Z,932.82
2019-01-17T05:00:21.739Z,932.83
2019-01-17T05:01:29.857Z,932.84
2019-01-17T05:02:37.883Z,932.84
2019-01-17T05:03:45.919Z,932.92
2019-01-17T05:04:53.976Z,932.85
2019-01-17T05:06:02.059Z,932.89
2019-01-17T05:07:10.056Z,932.90
2019-01-17T05:08:18.124Z,932.87
2019-01-17T05:09:26.158Z,932.89
2019-01-17T05:10:34.228Z,932.85
2019-01-17T05:11:42.314Z,932.77
2019-01-17T05:12:50.429Z,932.77
2019-01-17T05:13:58.371Z,932.77
2019-01-17T05:15:06.424Z,932.76
2019-01-17T05:16:14.580Z,932.80
2019-01-17T05:17:22.529Z,932.77
2019-01-17T05:18:30.572Z,932.71
2019-01-17T05:19:38.631Z,932.73
2019-01-17T05:20:46.698Z,932.72
2019-01-17T05:21:54.836Z,932.72
2019-01-17T05:23:02.818Z,932.69
2019-01-17T05:24:10.826Z,932.66
2019-01-17T05:25:18.906Z,932.60
2019-01-17T05:26:27.048Z,932.61
2019-01-17T05:27:35.010Z,932.62
2019-01-17T05:28:43.125Z,932.65
2019-01-17T05:29:51.132Z,932.68
2019-01-17T05:30:59.180Z,932.71
2019-01-17T05:32:07.959Z,932.72
2019-01-17T05:33:15.284Z,932.71
2019-01-17T05:34:23.330Z,932.70
2019-01-17T05:35:31.382Z,932.71
2019-01-17T05:36:39.746Z,932.68
2019-01-17T05:37:47.497Z,932.69
2019-01-17T05:38:55.553Z,932.61
2019-01-17T05:40:03.596Z,932.57
2019-01-17T05:41:11.647Z,932.56
2019-01-17T05:42:19.715Z,932.57
2019-01-17T05:43:27.750Z,932.55
2019-01-17T05:44:35.945Z,932.54
2019-01-17T05:45:43.858Z,932.55
2019-01-17T05:46:52.000Z,932.53
2019-01-17T05:47:59.959Z,932.53
2019-01-17T05:49:08.026Z,932.51
2019-01-17T05:50:16.072Z,932.50
2019-01-17T05:51:24.231Z,932.47
2019-01-17T05:52:32.266Z,932.46
2019-01-17T05:53:40.234Z,932.40
2019-01-17T05:54:48.716Z,932.38
2019-01-17T05:55:56.781Z,932.37
2019-01-17T05:57:04.439Z,932.38
2019-01-17T05:58:12.437Z,932.32
2019-01-17T05:59:20.478Z,932.30
2019-01-17T06:00:28.663Z,932.36
2019-01-17T06:01:36.668Z,932.31
2019-01-17T06:02:44.667Z,932.30
2019-01-17T06:03:52.757Z,932.26
2019-01-17T06:05:00.732Z,932.26
2019-01-17T06:06:08.847Z,932.26
2019-01-17T06:07:16.913Z,932.26
2019-01-17T06:08:25.176Z,932.30
2019-01-17T06:09:32.948Z,932.29
2019-01-17T06:10:41.007Z,932.29
2019-01-17T06:11:49.172Z,932.32
2019-01-17T06:12:57.124Z,932.32
2019-01-17T06:14:05.177Z,932.26
2019-01-17T06:15:13.237Z,932.29
2019-01-17T06:16:21.375Z,932.32
2019-01-17T06:17:29.398Z,932.32
2019-01-17T06:18:37.392Z,932.33
2019-01-17T06:19:45.442Z,932.32
2019-01-17T06:20:53.505Z,932.34
2019-01-17T06:22:01.607Z,932.33
2019-01-17T06:23:09.605Z,932.31
2019-01-17T06:24:17.655Z,932.29
2019-01-17T06:25:28.072Z,932.30
2019-01-17T06:26:33.766Z,932.30
2019-01-17T06:27:41.867Z,932.28
2019-01-17T06:28:49.850Z,932.24
2019-01-17T06:29:57.923Z,932.20
2019-01-17T06:31:05.970Z,932.21
2019-01-17T06:32:14.120Z,932.16
2019-01-17T06:33:22.076Z,932.13
2019-01-17T06:34:30.137Z,932.12
2019-01-17T06:35:38.189Z,932.12
2019-01-17T06:36:46.234Z,932.10
2019-01-17T06:37:54.387Z,932.05
2019-01-17T06:39:02.335Z,932.10
2019-01-17T06:40:10.399Z,932.11
2019-01-17T06:41:18.454Z,932.12
2019-01-17T06:42:26.619Z,932.11
2019-01-17T06:43:34.566Z,932.17
2019-01-17T06:44:42.595Z,932.17
2019-01-17T06:45:50.641Z,932.20
2019-01-17T06:46:58.706Z,932.19
2019-01-17T06:48:06.874Z,932.15
2019-01-17T06:49:14.836Z,932.12
2019-01-17T06:50:22.863Z,932.14
2019-01-17T06:51:30.892Z,932.14
2019-01-17T06:52:39.072Z,932.15
2019-01-17T06:53:47.055Z,932.11
2019-01-17T06:54:55.088Z,932.07
2019-01-17T06:56:03.155Z,932.12
2019-01-17T06:57:11.182Z,932.15
2019-01-17T06:58:19.363Z,932.18
2019-01-17T06:59:27.302Z,932.15
2019-01-17T07:00:35.358Z,932.13
2019-01-17T07:01:43.412Z,932.17
2019-01-17T07:02:51.565Z,932.17
2019-01-17T07:03:59.513Z,932.27
2019-01-17T07:05:07.558Z,932.23
2019-01-17T07:06:15.613Z,932.26
2019-01-17T07:07:23.685Z,932.30
2019-01-17T07:08:31.729Z,932.25
2019-01-17T07:09:39.790Z,932.31
2019-01-17T07:10:47.848Z,932.22
2019-01-17T07:11:55.884Z,932.23
2019-01-17T07:13:04.048Z,932.31
2019-01-17T07:14:12.018Z,932.28
2019-01-17T07:15:20.047Z,932.35
2019-01-17T07:16:28.114Z,932.24
2019-01-17T07:17:36.256Z,932.22
2019-01-17T07:18:44.321Z,932.22
2019-01-17T07:19:52.259Z,932.22
2019-01-17T07:21:00.335Z,932.25
2019-01-17T07:22:08.386Z,932.23
2019-01-17T07:23:16.543Z,932.22
2019-01-17T07:24:24.473Z,932.24
2019-01-17T07:25:32.520Z,932.24
2019-01-17T07:26:40.574Z,932.23
2019-01-17T07:27:48.644Z,932.24
2019-01-17T07:28:56.801Z,932.24
2019-01-17T07:30:04.762Z,932.26
2019-01-17T07:31:12.814Z,932.28
2019-01-17T07:32:20.838Z,932.28
2019-01-17T07:33:29.023Z,932.29
2019-01-17T07:34:36.963Z,932.36
2019-01-17T07:35:45.023Z,932.39
2019-01-17T07:36:53.085Z,932.31
2019-01-17T07:38:01.129Z,932.30
2019-01-17T07:39:09.248Z,932.34
2019-01-17T07:40:17.244Z,932.25
2019-01-17T07:41:25.301Z,932.29
2019-01-17T07:42:33.344Z,932.31
2019-01-17T07:43:41.485Z,932.29
2019-01-17T07:44:49.461Z,932.30
2019-01-17T07:45:57.513Z,932.27
2019-01-17T07:47:05.669Z,932.26
2019-01-17T07:48:13.622Z,932.30
2019-01-17T07:49:21.679Z,932.31
2019-01-17T07:50:29.719Z,932.30
2019-01-17T07:51:37.899Z,932.26
2019-01-17T07:52:45.835Z,932.33
2019-01-17T07:53:54.002Z,932.30
2019-01-17T07:55:01.947Z,932.27
2019-01-17T07:56:10.018Z,932.32
2019-01-17T07:57:18.066Z,932.24
2019-01-17T07:58:26.121Z,932.31
2019-01-17T07:59:34.184Z,932.31
2019-01-17T08:00:42.236Z,932.30
2019-01-17T08:01:50.274Z,932.27
2019-01-17T08:02:58.339Z,932.27
2019-01-17T08:04:06.487Z,932.28
2019-01-17T08:05:14.452Z,932.32
2019-01-17T08:06:22.506Z,932.32
2019-01-17T08:07:30.623Z,932.31
2019-01-17T08:08:38.613Z,932.34
2019-01-17T08:09:46.665Z,932.36
2019-01-17T08:10:54.739Z,932.32
2019-01-17T08:12:05.063Z,932.33
2019-01-17T08:13:10.812Z,932.36
2019-01-17T08:14:18.933Z,932.34
2019-01-17T08:15:26.948Z,932.35
2019-01-17T08:16:35.045Z,932.33
2019-01-17T08:17:43.097Z,932.32
2019-01-17T08:18:51.101Z,932.34
2019-01-17T08:19:59.173Z,932.27
2019-01-17T08:21:07.213Z,932.22
2019-01-17T08:22:15.268Z,932.18
2019-01-17T08:23:23.340Z,932.13
2019-01-17T08:24:31.462Z,932.12
2019-01-17T08:25:39.447Z,932.19
2019-01-17T08:26:47.501Z,932.18
2019-01-17T08:27:55.557Z,932.17
2019-01-17T08:29:03.735Z,932.21
2019-01-17T08:30:11.656Z,932.16
2019-01-17T08:31:19.709Z,932.23
2019-01-17T08:32:27.765Z,932.24
2019-01-17T08:33:35.827Z,932.23
2019-01-17T08:34:43.985Z,932.20
2019-01-17T08:35:51.923Z,932.21
2019-01-17T08:36:59.989Z,932.27
2019-01-17T08:38:08.056Z,932.33
2019-01-17T08:39:16.175Z,932.32
2019-01-17T08:40:24.152Z,932.37
2019-01-17T08:41:32.222Z,932.34
2019-01-17T08:42:40.281Z,932.41
2019-01-17T08:43:48.355Z,932.41
2019-01-17T08:44:56.485Z,932.40
2019-01-17T08:46:04.440Z,932.46
2019-01-17T08:47:12.499Z,932.44
2019-01-17T08:48:20.553Z,932.47
2019-01-17T08:49:28.702Z,932.44
2019-01-17T08:50:36.764Z,932.52
2019-01-17T08:51:44.725Z,932.46
2019-01-17T08:52:52.793Z,932.51
2019-01-17T08:54:00.806Z,932.50
2019-01-17T08:55:08.982Z,932.51
2019-01-17T08:56:16.947Z,932.55
2019-01-17T08:57:24.986Z,932.57
2019-01-17T08:58:33.069Z,932.62
2019-01-17T08:59:41.136Z,932.55
2019-01-17T09:00:49.157Z,932.55
2019-01-17T09:01:57.221Z,932.56
2019-01-17T09:03:05.278Z,932.58
2019-01-17T09:04:13.353Z,932.56
2019-01-17T09:05:21.436Z,932.56
2019-01-17T09:06:29.547Z,932.51
2019-01-17T09:07:37.521Z,932.54
2019-01-17T09:08:45.564Z,932.51
2019-01-17T09:09:53.717Z,932.48
2019-01-17T09:11:01.674Z,932.46
2019-01-17T09:12:09.745Z,932.49
2019-01-17T09:13:17.790Z,932.49
2019-01-17T09:14:25.830Z,932.52
2019-01-17T09:15:33.947Z,932.50
2019-01-17T09:16:41.980Z,932.52
2019-01-17T09:17:50.022Z,932.48
2019-01-17T09:18:58.071Z,932.53
2019-01-17T09:20:06.173Z,932.54
2019-01-17T09:21:14.188Z,932.55
2019-01-17T09:22:22.334Z,932.60
2019-01-17T09:23:30.289Z,932.65
2019-01-17T09:24:38.352Z,932.64
2019-01-17T09:25:46.508Z,932.61
2019-01-17T09:26:54.477Z,932.66
2019-01-17T09:28:02.529Z,932.61
2019-01-17T09:29:10.564Z,932.60
2019-01-17T09:30:18.736Z,932.63
2019-01-17T09:31:26.695Z,932.62
2019-01-17T09:32:34.749Z,932.66
2019-01-17T09:33:42.801Z,932.68
2019-01-17T09:34:50.849Z,932.70
2019-01-17T09:35:59.032Z,932.71
2019-01-17T09:37:06.966Z,932.71
2019-01-17T09:38:15.137Z,932.73
2019-01-17T09:39:23.086Z,932.76
2019-01-17T09:40:31.247Z,932.77
2019-01-17T09:41:39.208Z,932.74
2019-01-17T09:42:47.274Z,932.74
2019-01-17T09:43:55.333Z,932.73
2019-01-17T09:45:03.381Z,932.78
2019-01-17T09:46:11.531Z,932.79
2019-01-17T09:47:19.489Z,932.82
2019-01-17T09:48:27.542Z,932.79
2019-01-17T09:49:35.602Z,932.79
2019-01-17T09:50:43.734Z,932.77
2019-01-17T09:51:51.714Z,932.84
2019-01-17T09:52:59.860Z,932.76
2019-01-17T09:54:07.842Z,932.76
2019-01-17T09:55:15.893Z,932.75
2019-01-17T09:56:23.952Z,932.76
2019-01-17T09:57:32.005Z,932.80
2019-01-17T09:58:40.065Z,932.82
2019-01-17T09:59:48.117Z,932.80
2019-01-17T10:00:56.265Z,932.73
2019-01-17T10:02:04.228Z,932.69
2019-01-17T10:03:12.299Z,932.65
2019-01-17T10:04:20.337Z,932.70
2019-01-17T10:05:28.502Z,932.79
2019-01-17T10:06:36.469Z,932.79
2019-01-17T10:07:44.519Z,932.75
2019-01-17T10:08:52.578Z,932.76
2019-01-17T10:10:00.630Z,932.80
2019-01-17T10:11:08.735Z,932.81
2019-01-17T10:12:16.732Z,932.76
2019-01-17T10:13:24.797Z,932.77
2019-01-17T10:14:32.867Z,932.71
2019-01-17T10:15:40.892Z,932.68
2019-01-17T10:16:48.970Z,932.73
2019-01-17T10:17:57.030Z,932.76
2019-01-17T10:19:05.099Z,932.75
2019-01-17T10:20:13.141Z,932.78
2019-01-17T10:21:21.266Z,932.72
2019-01-17T10:22:29.257Z,932.68
2019-01-17T10:23:37.315Z,932.72
2019-01-17T10:24:45.379Z,932.68
2019-01-17T10:25:53.528Z,932.63
2019-01-17T10:27:01.458Z,932.61
2019-01-17T10:28:09.542Z,932.59
2019-01-17T10:29:17.646Z,932.55
2019-01-17T10:30:25.678Z,932.66
2019-01-17T10:31:33.768Z,932.62
2019-01-17T10:32:41.780Z,932.65
2019-01-17T10:33:49.837Z,932.60
2019-01-17T10:34:57.884Z,932.57
2019-01-17T10:36:06.032Z,932.60
2019-01-17T10:37:14.087Z,932.55
2019-01-17T10:38:22.066Z,932.52
2019-01-17T10:39:30.131Z,932.49
2019-01-17T10:40:38.165Z,932.52
2019-01-17T10:41:46.314Z,932.45
2019-01-17T10:42:54.288Z,932.47
2019-01-17T10:44:02.335Z,932.45
2019-01-17T10:45:10.406Z,932.48
2019-01-17T10:46:18.560Z,932.47
2019-01-17T10:47:26.518Z,932.46
2019-01-17T10:48:34.588Z,932.52
2019-01-17T10:49:42.631Z,932.46
2019-01-17T10:50:50.662Z,932.48
2019-01-17T10:51:58.776Z,932.50
2019-01-17T10:53:06.845Z,932.50
2019-01-17T10:54:14.851Z,932.48
2019-01-17T10:55:22.925Z,932.47
2019-01-17T10:56:31.048Z,932.46
2019-01-17T10:57:39.023Z,932.44
2019-01-17T10:58:47.097Z,932.45
2019-01-17T10:59:55.153Z,932.48
2019-01-17T11:01:03.208Z,932.47
2019-01-17T11:02:11.291Z,932.47
2019-01-17T11:03:19.330Z,932.43
2019-01-17T11:04:27.379Z,932.40
2019-01-17T11:05:35.417Z,932.37
2019-01-17T11:06:43.522Z,932.37
2019-01-17T11:07:51.599Z,932.35
2019-01-17T11:08:59.607Z,932.33
2019-01-17T11:10:07.672Z,932.30
2019-01-17T11:11:15.716Z,932.32
2019-01-17T11:12:23.824Z,932.33
2019-01-17T11:13:31.844Z,932.31
2019-01-17T11:14:39.889Z,932.34
2019-01-17T11:15:47.940Z,932.34
2019-01-17T11:16:56.045Z,932.39
2019-01-17T11:18:04.077Z,932.40
2019-01-17T11:19:12.138Z,932.37
2019-01-17T11:20:20.186Z,932.39
2019-01-17T11:21:28.250Z,932.34
2019-01-17T11:22:36.405Z,932.29
2019-01-17T11:23:44.371Z,932.30
2019-01-17T11:24:52.420Z,932.29
2019-01-17T11:26:01.727Z,932.26
2019-01-17T11:27:08.571Z,932.26
2019-01-17T11:28:16.584Z,932.24
2019-01-17T11:29:24.654Z,932.19
2019-01-17T11:30:32.705Z,932.18
2019-01-17T11:31:40.756Z,932.11
2019-01-17T11:32:48.857Z,932.15
2019-01-17T11:33:56.902Z,932.10
2019-01-17T11:35:04.920Z,932.20
2019-01-17T11:36:12.990Z,932.10
2019-01-17T11:37:21.081Z,932.16
2019-01-17T11:38:29.202Z,932.18
2019-01-17T11:39:37.182Z,932.18
2019-01-17T11:40:45.242Z,932.14
2019-01-17T11:41:53.291Z,932.16
2019-01-17T11:43:01.383Z,932.13
2019-01-17T11:44:09.401Z,932.14
2019-01-17T11:45:17.454Z,932.15
2019-01-17T11:46:25.512Z,932.18
2019-01-17T11:47:33.622Z,932.07
2019-01-17T11:48:41.643Z,932.13
2019-01-17T11:49:49.700Z,932.14
2019-01-17T11:50:57.742Z,932.12
2019-01-17T11:52:05.808Z,932.17
2019-01-17T11:53:13.907Z,932.22
2019-01-17T11:54:22.018Z,932.15
2019-01-17T11:55:29.998Z,932.11
2019-01-17T11:56:40.974Z,932.18
2019-01-17T11:57:46.159Z,932.20
2019-01-17T11:58:59.875Z,932.17
2019-01-17T12:00:02.236Z,932.19
2019-01-17T12:01:10.286Z,932.17
2019-01-17T12:02:18.338Z,932.14
2019-01-17T12:03:26.398Z,932.16
2019-01-17T12:04:34.443Z,932.19
2019-01-17T12:05:42.499Z,932.21
2019-01-17T12:06:50.563Z,932.24
2019-01-17T12:07:58.666Z,932.24
2019-01-17T12:09:06.686Z,932.21
2019-01-17T12:10:14.822Z,932.17
2019-01-17T12:11:22.792Z,932.19
2019-01-17T12:12:30.881Z,932.18
2019-01-17T12:13:38.915Z,932.20
2019-01-17T12:14:46.966Z,932.25
2019-01-17T12:15:55.025Z,932.14
2019-01-17T12:17:03.082Z,932.14
2019-01-17T12:18:11.233Z,932.19
2019-01-17T12:19:19.203Z,932.18
2019-01-17T12:20:27.246Z,932.19
2019-01-17T12:21:35.325Z,932.18
2019-01-17T12:22:43.450Z,932.21
2019-01-17T12:23:51.412Z,932.24
2019-01-17T12:24:59.489Z,932.23
2019-01-17T12:26:07.786Z,932.23
2019-01-17T12:27:15.601Z,932.24
2019-01-17T12:28:23.681Z,932.23
2019-01-17T12:29:31.698Z,932.25
2019-01-17T12:30:39.749Z,932.24
2019-01-17T12:31:47.831Z,932.21
2019-01-17T12:32:55.984Z,932.19
2019-01-17T12:34:03.933Z,932.20
2019-01-17T12:35:11.993Z,932.20
2019-01-17T12:36:20.047Z,932.25
2019-01-17T12:37:28.121Z,932.20
2019-01-17T12:38:36.249Z,932.24
2019-01-17T12:39:44.218Z,932.28
2019-01-17T12:40:52.289Z,932.29
2019-01-17T12:42:00.433Z,932.24
2019-01-17T12:43:08.493Z,932.25
2019-01-17T12:44:16.441Z,932.26
2019-01-17T12:45:24.498Z,932.24
2019-01-17T12:46:32.550Z,932.21
2019-01-17T12:47:40.615Z,932.30
2019-01-17T12:48:48.730Z,932.27
2019-01-17T12:49:56.748Z,932.26
2019-01-17T12:51:04.801Z,932.23
2019-01-17T12:52:12.852Z,932.36
2019-01-17T12:53:20.970Z,932.29
2019-01-17T12:54:28.956Z,932.30
2019-01-17T12:55:37.016Z,932.30
2019-01-17T12:56:45.081Z,932.23
2019-01-17T12:57:53.172Z,932.27
2019-01-17T12:59:01.219Z,932.30
2019-01-17T13:00:09.237Z,932.27
2019-01-17T13:01:17.303Z,932.24
2019-01-17T13:02:25.369Z,932.21
2019-01-17T13:03:33.486Z,932.11
2019-01-17T13:04:41.457Z,932.17
2019-01-17T13:05:49.518Z,932.17
2019-01-17T13:06:57.584Z,932.15
2019-01-17T13:08:05.645Z,932.12
2019-01-17T13:09:13.757Z,932.13
2019-01-17T13:10:21.744Z,932.11
2019-01-17T13:11:29.813Z,932.12
2019-01-17T13:12:37.969Z,932.15
2019-01-17T13:13:46.013Z,932.15
2019-01-17T13:14:53.983Z,932.12
2019-01-17T13:16:02.044Z,932.20
2019-01-17T13:17:10.115Z,932.29
2019-01-17T13:18:18.158Z,932.18
2019-01-17T13:19:26.255Z,932.22
2019-01-17T13:20:34.313Z,932.15
2019-01-17T13:21:42.334Z,932.05
2019-01-17T13:22:50.383Z,932.10
2019-01-17T13:23:58.485Z,932.17
2019-01-17T13:25:06.493Z,932.17
2019-01-17T13:26:14.554Z,932.17
2019-01-17T13:27:22.605Z,932.19
2019-01-17T13:28:30.646Z,932.11
2019-01-17T13:29:38.813Z,932.17
2019-01-17T13:30:46.779Z,932.17
2019-01-17T13:31:54.830Z,932.10
2019-01-17T13:33:02.900Z,932.13
2019-01-17T13:34:10.975Z,932.15
2019-01-17T13:35:19.019Z,932.18
2019-01-17T13:36:27.062Z,932.17
2019-01-17T13:37:35.112Z,932.13
2019-01-17T13:38:43.187Z,932.15
2019-01-17T13:39:51.307Z,932.14
2019-01-17T13:40:59.278Z,932.21
2019-01-17T13:42:07.337Z,932.08
2019-01-17T13:43:15.438Z,932.24
2019-01-17T13:44:23.511Z,932.20
2019-01-17T13:45:31.511Z,932.17
2019-01-17T13:46:39.563Z,932.22
2019-01-17T13:47:47.624Z,932.26
2019-01-17T13:48:55.696Z,932.29
2019-01-17T13:50:03.795Z,932.22
2019-01-17T13:51:11.791Z,932.20
2019-01-17T13:52:19.846Z,932.24
2019-01-17T13:53:27.912Z,932.21
2019-01-17T13:54:36.014Z,932.21
2019-01-17T13:55:44.020Z,932.18
2019-01-17T13:56:52.083Z,932.19
2019-01-17T13:58:00.171Z,932.18
2019-01-17T13:59:08.194Z,932.22
2019-01-17T14:00:16.327Z,932.26
2019-01-17T14:01:24.316Z,932.27
2019-01-17T14:02:32.371Z,932.28
2019-01-17T14:03:40.414Z,932.24
2019-01-17T14:04:48.572Z,932.30
2019-01-17T14:05:56.553Z,932.33
2019-01-17T14:07:04.608Z,932.30
2019-01-17T14:08:12.644Z,932.37
2019-01-17T14:09:20.692Z,932.29